sensor_id;sensor_type;location;lat;lon;timestamp;temperature;humidity
12520;DHT22;6325;49.540;8.364;2023-06-14T12:07:49;28.50;64.50
12520;DHT22;6325;49.540;8.364;2023-06-14T12:10:20;28.60;64.60
12520;DHT22;6325;49.540;8.364;2023-06-14T12:12:47;28.70;65.30
12520;DHT22;6325;49.540;8.364;2023-06-14T12:15:14;28.70;61.00
12520;DHT22;6325;49.540;8.364;2023-06-14T12:17:42;28.50;63.10
12520;DHT22;6325;49.540;8.364;2023-06-14T12:20:11;28.60;62.30
12520;DHT22;6325;49.540;8.364;2023-06-14T12:22:46;28.70;62.60
12520;DHT22;6325;49.540;8.364;2023-06-14T12:25:28;29.10;66.70
12520;DHT22;6325;49.540;8.364;2023-06-14T12:27:56;29.00;63.00
12520;DHT22;6325;49.540;8.364;2023-06-14T12:30:23;28.80;60.40
12520;DHT22;6325;49.540;8.364;2023-06-14T12:32:50;29.00;62.30
12520;DHT22;6325;49.540;8.364;2023-06-14T12:35:18;28.80;62.40
12520;DHT22;6325;49.540;8.364;2023-06-14T12:37:45;28.90;63.00
12520;DHT22;6325;49.540;8.364;2023-06-14T12:40:12;28.90;60.50
12520;DHT22;6325;49.540;8.364;2023-06-14T12:42:40;28.80;63.30
12520;DHT22;6325;49.540;8.364;2023-06-14T12:45:08;28.70;63.40
12520;DHT22;6325;49.540;8.364;2023-06-14T12:47:36;28.60;61.20
12520;DHT22;6325;49.540;8.364;2023-06-14T12:50:03;27.50;61.00
12520;DHT22;6325;49.540;8.364;2023-06-14T12:52:29;27.70;63.00
12520;DHT22;6325;49.540;8.364;2023-06-14T12:54:56;27.40;64.20
12520;DHT22;6325;49.540;8.364;2023-06-14T12:57:23;27.60;65.30
12520;DHT22;6325;49.540;8.364;2023-06-14T12:59:52;27.90;63.50
12520;DHT22;6325;49.540;8.364;2023-06-14T13:02:19;28.30;63.80
12520;DHT22;6325;49.540;8.364;2023-06-14T13:04:47;28.40;62.20
12520;DHT22;6325;49.540;8.364;2023-06-14T13:07:14;28.60;60.30
12520;DHT22;6325;49.540;8.364;2023-06-14T13:09:41;28.40;61.50
12520;DHT22;6325;49.540;8.364;2023-06-14T13:12:10;28.30;60.30
12520;DHT22;6325;49.540;8.364;2023-06-14T13:14:38;28.10;60.90
12520;DHT22;6325;49.540;8.364;2023-06-14T13:17:08;28.20;61.40
12520;DHT22;6325;49.540;8.364;2023-06-14T13:19:35;28.20;61.90
12520;DHT22;6325;49.540;8.364;2023-06-14T13:22:02;28.30;61.10
12520;DHT22;6325;49.540;8.364;2023-06-14T13:24:29;28.30;62.80
12520;DHT22;6325;49.540;8.364;2023-06-14T13:26:56;28.30;59.90
12520;DHT22;6325;49.540;8.364;2023-06-14T13:29:24;28.50;64.30
12520;DHT22;6325;49.540;8.364;2023-06-14T13:31:52;28.90;62.70
12520;DHT22;6325;49.540;8.364;2023-06-14T13:34:20;29.30;59.90
12520;DHT22;6325;49.540;8.364;2023-06-14T13:36:47;29.70;58.70
12520;DHT22;6325;49.540;8.364;2023-06-14T13:39:14;29.40;57.70
12520;DHT22;6325;49.540;8.364;2023-06-14T13:41:41;29.50;58.50
12520;DHT22;6325;49.540;8.364;2023-06-14T13:44:07;29.50;56.60
12520;DHT22;6325;49.540;8.364;2023-06-14T13:46:36;29.30;57.60
12520;DHT22;6325;49.540;8.364;2023-06-14T13:49:03;29.30;57.60
12520;DHT22;6325;49.540;8.364;2023-06-14T13:51:32;28.40;58.50
12520;DHT22;6325;49.540;8.364;2023-06-14T13:54:00;28.30;59.00
12520;DHT22;6325;49.540;8.364;2023-06-14T13:56:27;28.00;58.30
12520;DHT22;6325;49.540;8.364;2023-06-14T13:58:54;27.50;59.20
12520;DHT22;6325;49.540;8.364;2023-06-14T14:01:20;27.90;61.30
12520;DHT22;6325;49.540;8.364;2023-06-14T14:03:48;27.80;59.80
12520;DHT22;6325;49.540;8.364;2023-06-14T14:06:16;27.80;59.20
12520;DHT22;6325;49.540;8.364;2023-06-14T14:08:44;27.80;61.00
12520;DHT22;6325;49.540;8.364;2023-06-14T14:11:11;27.80;58.40
12520;DHT22;6325;49.540;8.364;2023-06-14T14:13:38;27.40;59.70
12520;DHT22;6325;49.540;8.364;2023-06-14T14:16:06;28.10;62.90
12520;DHT22;6325;49.540;8.364;2023-06-14T14:18:32;28.40;59.30
12520;DHT22;6325;49.540;8.364;2023-06-14T14:21:00;28.80;57.60
12520;DHT22;6325;49.540;8.364;2023-06-14T14:23:27;29.50;59.60
12520;DHT22;6325;49.540;8.364;2023-06-14T14:25:56;29.80;59.10
12520;DHT22;6325;49.540;8.364;2023-06-14T14:28:23;30.40;59.20
12520;DHT22;6325;49.540;8.364;2023-06-14T14:30:50;30.00;56.50
12520;DHT22;6325;49.540;8.364;2023-06-14T14:33:19;31.00;55.60
12520;DHT22;6325;49.540;8.364;2023-06-14T14:35:46;31.30;58.50
12520;DHT22;6325;49.540;8.364;2023-06-14T14:38:13;31.40;55.90
12520;DHT22;6325;49.540;8.364;2023-06-14T14:40:40;30.80;54.30
12520;DHT22;6325;49.540;8.364;2023-06-14T14:43:08;30.60;56.50
12520;DHT22;6325;49.540;8.364;2023-06-14T14:45:36;30.50;54.40
12520;DHT22;6325;49.540;8.364;2023-06-14T14:48:03;30.50;54.10
12520;DHT22;6325;49.540;8.364;2023-06-14T14:50:30;30.00;55.00
12520;DHT22;6325;49.540;8.364;2023-06-14T14:52:56;30.20;56.20
12520;DHT22;6325;49.540;8.364;2023-06-14T14:55:23;30.40;55.50
12520;DHT22;6325;49.540;8.364;2023-06-14T14:57:50;30.50;53.90
12520;DHT22;6325;49.540;8.364;2023-06-14T15:00:19;30.50;54.30
12520;DHT22;6325;49.540;8.364;2023-06-14T15:02:46;30.80;55.70
12520;DHT22;6325;49.540;8.364;2023-06-14T15:05:13;31.20;54.60
12520;DHT22;6325;49.540;8.364;2023-06-14T15:07:39;31.20;53.20
12520;DHT22;6325;49.540;8.364;2023-06-14T15:10:07;30.30;53.50
12520;DHT22;6325;49.540;8.364;2023-06-14T15:12:35;30.40;55.10
12520;DHT22;6325;49.540;8.364;2023-06-14T15:15:02;30.20;56.10
12520;DHT22;6325;49.540;8.364;2023-06-14T15:17:30;29.30;55.40
12520;DHT22;6325;49.540;8.364;2023-06-14T15:19:57;29.10;54.60
12520;DHT22;6325;49.540;8.364;2023-06-14T15:22:24;28.70;55.10
12520;DHT22;6325;49.540;8.364;2023-06-14T15:24:50;28.40;55.60
12520;DHT22;6325;49.540;8.364;2023-06-14T15:27:17;28.40;56.70
12520;DHT22;6325;49.540;8.364;2023-06-14T15:29:44;28.20;58.10
12520;DHT22;6325;49.540;8.364;2023-06-14T15:32:11;28.10;56.50
12520;DHT22;6325;49.540;8.364;2023-06-14T15:34:41;28.80;57.10
12520;DHT22;6325;49.540;8.364;2023-06-14T15:37:08;28.40;55.10
12520;DHT22;6325;49.540;8.364;2023-06-14T15:39:35;28.40;56.80
12520;DHT22;6325;49.540;8.364;2023-06-14T15:42:03;29.10;54.50
12520;DHT22;6325;49.540;8.364;2023-06-14T15:44:29;29.60;55.00
12520;DHT22;6325;49.540;8.364;2023-06-14T15:46:56;29.50;54.90
12520;DHT22;6325;49.540;8.364;2023-06-14T15:49:23;29.90;56.30
12520;DHT22;6325;49.540;8.364;2023-06-14T15:51:51;29.90;52.50
12520;DHT22;6325;49.540;8.364;2023-06-14T15:54:18;29.80;52.50
12520;DHT22;6325;49.540;8.364;2023-06-14T15:56:44;30.00;53.20
12520;DHT22;6325;49.540;8.364;2023-06-14T15:59:11;30.10;53.50
12520;DHT22;6325;49.540;8.364;2023-06-14T16:01:38;30.70;50.20
12520;DHT22;6325;49.540;8.364;2023-06-14T16:04:05;30.50;52.10
12520;DHT22;6325;49.540;8.364;2023-06-14T16:06:31;31.10;52.30
12520;DHT22;6325;49.540;8.364;2023-06-14T16:08:59;31.60;54.80
12520;DHT22;6325;49.540;8.364;2023-06-14T16:11:28;31.90;50.90
12520;DHT22;6325;49.540;8.364;2023-06-14T16:13:55;32.00;52.60
12520;DHT22;6325;49.540;8.364;2023-06-14T16:16:21;31.70;50.50
12520;DHT22;6325;49.540;8.364;2023-06-14T16:18:48;32.30;51.50
12520;DHT22;6325;49.540;8.364;2023-06-14T16:21:15;31.80;50.20
12520;DHT22;6325;49.540;8.364;2023-06-14T16:23:42;31.10;51.00
12520;DHT22;6325;49.540;8.364;2023-06-14T16:26:11;30.00;52.80
12520;DHT22;6325;49.540;8.364;2023-06-14T16:28:39;29.80;54.40
12520;DHT22;6325;49.540;8.364;2023-06-14T16:31:08;29.30;52.80
12520;DHT22;6325;49.540;8.364;2023-06-14T16:33:35;28.50;52.60
12520;DHT22;6325;49.540;8.364;2023-06-14T16:36:02;28.50;53.60
12520;DHT22;6325;49.540;8.364;2023-06-14T16:38:29;28.90;53.60
12520;DHT22;6325;49.540;8.364;2023-06-14T16:40:56;29.70;54.60
12520;DHT22;6325;49.540;8.364;2023-06-14T16:43:24;30.10;53.80
12520;DHT22;6325;49.540;8.364;2023-06-14T16:45:51;30.90;50.70
12520;DHT22;6325;49.540;8.364;2023-06-14T16:48:18;31.00;50.20
12520;DHT22;6325;49.540;8.364;2023-06-14T16:50:45;31.80;49.60
12520;DHT22;6325;49.540;8.364;2023-06-14T16:53:12;31.70;48.50
12520;DHT22;6325;49.540;8.364;2023-06-14T16:55:39;31.60;48.90
12520;DHT22;6325;49.540;8.364;2023-06-14T16:58:06;31.20;49.50
12520;DHT22;6325;49.540;8.364;2023-06-14T17:00:35;31.20;49.00
12520;DHT22;6325;49.540;8.364;2023-06-14T17:03:01;31.80;50.70
12520;DHT22;6325;49.540;8.364;2023-06-14T17:05:30;31.90;50.00
12520;DHT22;6325;49.540;8.364;2023-06-14T17:07:57;31.80;49.80
12520;DHT22;6325;49.540;8.364;2023-06-14T17:10:24;31.80;48.90
12520;DHT22;6325;49.540;8.364;2023-06-14T17:12:51;30.80;48.50
12520;DHT22;6325;49.540;8.364;2023-06-14T17:15:18;30.60;51.10
12520;DHT22;6325;49.540;8.364;2023-06-14T17:17:46;30.10;52.10
12520;DHT22;6325;49.540;8.364;2023-06-14T17:20:12;29.80;50.50
12520;DHT22;6325;49.540;8.364;2023-06-14T17:22:40;29.70;50.30
12520;DHT22;6325;49.540;8.364;2023-06-14T17:25:08;29.60;50.60
12520;DHT22;6325;49.540;8.364;2023-06-14T17:27:35;28.40;52.00
12520;DHT22;6325;49.540;8.364;2023-06-14T17:30:02;28.40;52.40
12520;DHT22;6325;49.540;8.364;2023-06-14T17:32:28;27.60;54.70
12520;DHT22;6325;49.540;8.364;2023-06-14T17:34:57;27.70;55.30
12520;DHT22;6325;49.540;8.364;2023-06-14T17:37:23;27.40;54.70
12520;DHT22;6325;49.540;8.364;2023-06-14T17:39:50;27.10;53.20
12520;DHT22;6325;49.540;8.364;2023-06-14T17:42:17;26.90;54.40
12520;DHT22;6325;49.540;8.364;2023-06-14T17:44:44;27.10;54.70
12520;DHT22;6325;49.540;8.364;2023-06-14T17:47:10;26.90;55.20
12520;DHT22;6325;49.540;8.364;2023-06-14T17:49:37;26.80;55.20
12520;DHT22;6325;49.540;8.364;2023-06-14T17:52:06;26.70;55.00
12520;DHT22;6325;49.540;8.364;2023-06-14T17:54:33;26.80;56.50
12520;DHT22;6325;49.540;8.364;2023-06-14T17:57:00;26.50;56.90
12520;DHT22;6325;49.540;8.364;2023-06-14T17:59:26;26.60;55.60
12520;DHT22;6325;49.540;8.364;2023-06-14T18:01:53;26.20;56.60
12520;DHT22;6325;49.540;8.364;2023-06-14T18:04:20;26.40;57.60
12520;DHT22;6325;49.540;8.364;2023-06-14T18:06:46;25.80;55.50
12520;DHT22;6325;49.540;8.364;2023-06-14T18:09:15;26.30;57.30
12520;DHT22;6325;49.540;8.364;2023-06-14T18:11:42;26.20;58.90
12520;DHT22;6325;49.540;8.364;2023-06-14T18:14:08;26.10;58.70
12520;DHT22;6325;49.540;8.364;2023-06-14T18:16:35;26.10;59.30
12520;DHT22;6325;49.540;8.364;2023-06-14T18:19:04;25.80;56.70
12520;DHT22;6325;49.540;8.364;2023-06-14T18:21:31;25.70;56.70
12520;DHT22;6325;49.540;8.364;2023-06-14T18:23:57;26.00;57.40
12520;DHT22;6325;49.540;8.364;2023-06-14T18:26:25;25.40;57.30
12520;DHT22;6325;49.540;8.364;2023-06-14T18:28:53;25.50;58.20
12520;DHT22;6325;49.540;8.364;2023-06-14T18:31:20;25.60;59.00
12520;DHT22;6325;49.540;8.364;2023-06-14T18:33:47;25.20;59.40
12520;DHT22;6325;49.540;8.364;2023-06-14T18:36:14;25.00;60.10
12520;DHT22;6325;49.540;8.364;2023-06-14T18:38:40;25.10;61.70
12520;DHT22;6325;49.540;8.364;2023-06-14T18:41:07;24.90;62.20
12520;DHT22;6325;49.540;8.364;2023-06-14T18:43:35;24.60;62.50
12520;DHT22;6325;49.540;8.364;2023-06-14T18:46:02;24.60;60.50
12520;DHT22;6325;49.540;8.364;2023-06-14T18:48:29;24.30;61.50
12520;DHT22;6325;49.540;8.364;2023-06-14T18:50:55;24.30;61.50
12520;DHT22;6325;49.540;8.364;2023-06-14T18:53:22;24.50;63.10
12520;DHT22;6325;49.540;8.364;2023-06-14T18:55:52;24.40;63.40
12520;DHT22;6325;49.540;8.364;2023-06-14T18:58:19;24.60;63.40
12520;DHT22;6325;49.540;8.364;2023-06-14T19:00:48;24.20;62.20
12520;DHT22;6325;49.540;8.364;2023-06-14T19:03:15;24.20;63.60
12520;DHT22;6325;49.540;8.364;2023-06-14T19:05:42;24.10;62.20
12520;DHT22;6325;49.540;8.364;2023-06-14T19:08:09;23.90;63.90
12520;DHT22;6325;49.540;8.364;2023-06-14T19:10:36;23.90;64.00
12520;DHT22;6325;49.540;8.364;2023-06-14T19:13:03;23.60;64.40
12520;DHT22;6325;49.540;8.364;2023-06-14T19:15:32;23.70;65.80
12520;DHT22;6325;49.540;8.364;2023-06-14T19:18:00;23.90;66.20
12520;DHT22;6325;49.540;8.364;2023-06-14T19:20:29;23.40;66.30
12520;DHT22;6325;49.540;8.364;2023-06-14T19:22:56;23.50;66.10
12520;DHT22;6325;49.540;8.364;2023-06-14T19:25:23;23.60;67.20
12520;DHT22;6325;49.540;8.364;2023-06-14T19:27:50;23.40;66.70
12520;DHT22;6325;49.540;8.364;2023-06-14T19:30:17;23.20;68.30
12520;DHT22;6325;49.540;8.364;2023-06-14T19:32:45;23.40;69.00
12520;DHT22;6325;49.540;8.364;2023-06-14T19:35:16;23.10;68.60
12520;DHT22;6325;49.540;8.364;2023-06-14T19:37:44;23.10;69.80
12520;DHT22;6325;49.540;8.364;2023-06-14T19:40:12;23.00;71.00
12520;DHT22;6325;49.540;8.364;2023-06-14T19:42:39;23.20;72.20
12520;DHT22;6325;49.540;8.364;2023-06-14T19:45:07;22.40;71.90
12520;DHT22;6325;49.540;8.364;2023-06-14T19:47:34;22.60;71.70
12520;DHT22;6325;49.540;8.364;2023-06-14T19:50:01;22.80;73.60
12520;DHT22;6325;49.540;8.364;2023-06-14T19:52:29;22.70;74.10
12520;DHT22;6325;49.540;8.364;2023-06-14T19:54:56;22.40;74.10
12520;DHT22;6325;49.540;8.364;2023-06-14T19:57:23;22.30;74.30
12520;DHT22;6325;49.540;8.364;2023-06-14T19:59:50;22.20;74.40
12520;DHT22;6325;49.540;8.364;2023-06-14T20:02:17;22.20;75.90
12520;DHT22;6325;49.540;8.364;2023-06-14T20:04:44;22.20;76.20
12520;DHT22;6325;49.540;8.364;2023-06-14T20:07:11;22.50;76.40
12520;DHT22;6325;49.540;8.364;2023-06-14T20:09:39;22.00;75.60
12520;DHT22;6325;49.540;8.364;2023-06-14T20:12:07;22.10;75.10
12520;DHT22;6325;49.540;8.364;2023-06-14T20:14:34;22.00;76.00
12520;DHT22;6325;49.540;8.364;2023-06-14T20:17:01;21.80;77.40
12520;DHT22;6325;49.540;8.364;2023-06-14T20:19:27;21.90;77.80
12520;DHT22;6325;49.540;8.364;2023-06-14T20:21:54;21.50;77.60
12520;DHT22;6325;49.540;8.364;2023-06-14T20:24:21;21.80;77.80
12520;DHT22;6325;49.540;8.364;2023-06-14T20:26:49;21.40;78.80
12520;DHT22;6325;49.540;8.364;2023-06-14T20:29:16;21.70;80.90
12520;DHT22;6325;49.540;8.364;2023-06-14T20:31:43;21.30;79.80
12520;DHT22;6325;49.540;8.364;2023-06-14T20:34:09;21.50;81.70
12520;DHT22;6325;49.540;8.364;2023-06-14T20:36:36;21.40;82.60
12520;DHT22;6325;49.540;8.364;2023-06-14T20:39:03;21.40;83.20
12520;DHT22;6325;49.540;8.364;2023-06-14T20:41:30;21.20;83.20
12520;DHT22;6325;49.540;8.364;2023-06-14T20:43:58;21.90;84.30
12520;DHT22;6325;49.540;8.364;2023-06-14T20:46:26;21.20;84.40
12520;DHT22;6325;49.540;8.364;2023-06-14T20:48:54;21.20;85.30
12520;DHT22;6325;49.540;8.364;2023-06-14T20:51:21;20.90;84.50
12520;DHT22;6325;49.540;8.364;2023-06-14T20:53:47;21.10;85.50
12520;DHT22;6325;49.540;8.364;2023-06-14T20:56:14;21.00;84.70
12520;DHT22;6325;49.540;8.364;2023-06-14T20:58:41;21.00;85.10
12520;DHT22;6325;49.540;8.364;2023-06-14T21:01:09;21.00;85.50
12520;DHT22;6325;49.540;8.364;2023-06-14T21:03:36;21.00;85.20
12520;DHT22;6325;49.540;8.364;2023-06-14T21:06:03;21.10;85.70
12520;DHT22;6325;49.540;8.364;2023-06-14T21:08:31;21.10;84.00
12520;DHT22;6325;49.540;8.364;2023-06-14T21:10:57;21.00;84.40
12520;DHT22;6325;49.540;8.364;2023-06-14T21:13:24;21.00;85.90
12520;DHT22;6325;49.540;8.364;2023-06-14T21:15:51;21.00;86.60
12520;DHT22;6325;49.540;8.364;2023-06-14T21:18:19;21.10;86.70
12520;DHT22;6325;49.540;8.364;2023-06-14T21:20:46;21.20;86.80
12520;DHT22;6325;49.540;8.364;2023-06-14T21:23:15;20.90;86.00
12520;DHT22;6325;49.540;8.364;2023-06-14T21:25:42;21.00;86.50
12520;DHT22;6325;49.540;8.364;2023-06-14T21:28:09;21.10;87.80
12520;DHT22;6325;49.540;8.364;2023-06-14T21:30:36;21.40;88.30
12520;DHT22;6325;49.540;8.364;2023-06-14T21:33:03;21.00;87.40
12520;DHT22;6325;49.540;8.364;2023-06-14T21:35:32;20.80;87.40
12520;DHT22;6325;49.540;8.364;2023-06-14T21:37:59;20.60;87.20
12520;DHT22;6325;49.540;8.364;2023-06-14T21:40:26;20.80;87.20
12520;DHT22;6325;49.540;8.364;2023-06-14T21:42:52;20.70;87.00
12520;DHT22;6325;49.540;8.364;2023-06-14T21:45:19;20.70;88.20
12520;DHT22;6325;49.540;8.364;2023-06-14T21:47:46;20.40;89.00
12520;DHT22;6325;49.540;8.364;2023-06-14T21:50:15;20.40;89.50
12520;DHT22;6325;49.540;8.364;2023-06-14T21:52:43;20.20;90.40
12520;DHT22;6325;49.540;8.364;2023-06-14T21:55:10;20.70;90.60
12520;DHT22;6325;49.540;8.364;2023-06-14T21:57:37;20.40;91.00
12520;DHT22;6325;49.540;8.364;2023-06-14T22:00:05;20.30;90.70
12520;DHT22;6325;49.540;8.364;2023-06-14T22:02:34;20.60;91.10
12520;DHT22;6325;49.540;8.364;2023-06-14T22:05:01;20.60;91.30
12520;DHT22;6325;49.540;8.364;2023-06-14T22:07:27;20.20;91.40
12520;DHT22;6325;49.540;8.364;2023-06-14T22:09:57;20.10;91.60
12520;DHT22;6325;49.540;8.364;2023-06-14T22:12:24;20.20;92.20
12520;DHT22;6325;49.540;8.364;2023-06-14T22:14:52;20.20;92.90
12520;DHT22;6325;49.540;8.364;2023-06-14T22:17:19;19.50;93.20
12520;DHT22;6325;49.540;8.364;2023-06-14T22:19:48;20.20;94.00
12520;DHT22;6325;49.540;8.364;2023-06-14T22:22:17;20.50;94.30
12520;DHT22;6325;49.540;8.364;2023-06-14T22:24:46;19.80;94.40
12520;DHT22;6325;49.540;8.364;2023-06-14T22:27:14;19.60;94.00
12520;DHT22;6325;49.540;8.364;2023-06-14T22:29:45;20.40;94.80
12520;DHT22;6325;49.540;8.364;2023-06-14T22:32:13;19.40;95.20
12520;DHT22;6325;49.540;8.364;2023-06-14T22:34:40;19.60;95.60
12520;DHT22;6325;49.540;8.364;2023-06-14T22:37:07;20.00;96.00
12520;DHT22;6325;49.540;8.364;2023-06-14T22:39:34;19.90;96.20
12520;DHT22;6325;49.540;8.364;2023-06-14T22:42:01;19.50;96.10
12520;DHT22;6325;49.540;8.364;2023-06-14T22:44:33;19.90;96.90
12520;DHT22;6325;49.540;8.364;2023-06-14T22:47:00;20.10;97.50
12520;DHT22;6325;49.540;8.364;2023-06-14T22:49:27;19.40;97.60
12520;DHT22;6325;49.540;8.364;2023-06-14T22:51:56;19.30;98.00
12520;DHT22;6325;49.540;8.364;2023-06-14T22:54:26;19.20;98.30
12520;DHT22;6325;49.540;8.364;2023-06-14T22:56:53;19.80;99.30
12520;DHT22;6325;49.540;8.364;2023-06-14T22:59:20;19.00;99.40
12520;DHT22;6325;49.540;8.364;2023-06-14T23:01:50;19.10;99.50
12520;DHT22;6325;49.540;8.364;2023-06-14T23:04:18;19.30;99.90
12520;DHT22;6325;49.540;8.364;2023-06-14T23:06:46;18.90;99.60
12520;DHT22;6325;49.540;8.364;2023-06-14T23:09:13;19.10;99.90
12520;DHT22;6325;49.540;8.364;2023-06-14T23:11:40;18.90;99.90
12520;DHT22;6325;49.540;8.364;2023-06-14T23:14:09;19.30;99.90
12520;DHT22;6325;49.540;8.364;2023-06-14T23:16:36;18.90;99.90
12520;DHT22;6325;49.540;8.364;2023-06-14T23:19:04;19.00;99.90
12520;DHT22;6325;49.540;8.364;2023-06-14T23:21:31;19.00;99.90
12520;DHT22;6325;49.540;8.364;2023-06-14T23:23:58;19.00;99.90
12520;DHT22;6325;49.540;8.364;2023-06-14T23:26:28;18.90;99.90
12520;DHT22;6325;49.540;8.364;2023-06-14T23:28:54;18.80;99.90
12520;DHT22;6325;49.540;8.364;2023-06-14T23:31:21;18.70;99.90
12520;DHT22;6325;49.540;8.364;2023-06-14T23:33:48;18.70;99.90
12520;DHT22;6325;49.540;8.364;2023-06-14T23:36:17;18.70;99.90
12520;DHT22;6325;49.540;8.364;2023-06-14T23:38:44;19.00;99.90
12520;DHT22;6325;49.540;8.364;2023-06-14T23:41:13;19.10;99.90
12520;DHT22;6325;49.540;8.364;2023-06-14T23:43:41;18.60;99.90
12520;DHT22;6325;49.540;8.364;2023-06-14T23:46:10;18.60;99.90
12520;DHT22;6325;49.540;8.364;2023-06-14T23:48:38;18.70;99.90
12520;DHT22;6325;49.540;8.364;2023-06-14T23:51:05;18.60;99.90
12520;DHT22;6325;49.540;8.364;2023-06-14T23:53:33;18.60;99.90
12520;DHT22;6325;49.540;8.364;2023-06-14T23:56:00;18.60;99.90
12520;DHT22;6325;49.540;8.364;2023-06-14T23:58:28;18.60;99.90
